Terminal Aerodrome Forecast
Issued by NWS

Home | Current Version | Previous Version | Graphics & Text | Print | Product List | Glossary On
Versions: 1 2 3 4 5 6 7 8 9 10 11 12 13 14 15 16 17
619
FTUS43 KMPX 190520
TAFAXN
TAF
KAXN 190520Z 1906/2006 23004KT 6SM BR SKC
     FM190900 23003KT 3SM BR SKC
     FM191300 22004KT P6SM SKC
     FM191900 19010KT P6SM SKC
     FM200300 17006KT P6SM SKC=

USA.gov is the U.S. government's official web portal to all federal, state and local government web resources and services.